createdAt,value
2017-08-30T00:00:51.430Z,100682.45
2017-08-30T00:03:19.339Z,100681.77
2017-08-30T00:05:47.267Z,100684.09
2017-08-30T00:08:15.177Z,100685.00
2017-08-30T00:10:43.108Z,100685.59
2017-08-30T00:13:11.012Z,100678.94
2017-08-30T00:15:39.038Z,100675.08
2017-08-30T00:18:06.954Z,100681.34
2017-08-30T00:20:34.878Z,100672.55
2017-08-30T00:23:02.803Z,100673.45
2017-08-30T00:25:42.661Z,100680.78
2017-08-30T00:28:10.592Z,100685.91
2017-08-30T00:30:38.498Z,100679.52
2017-08-30T00:33:06.436Z,100676.95
2017-08-30T00:35:34.380Z,100672.56
2017-08-30T00:38:02.287Z,100675.66
2017-08-30T00:40:30.213Z,100674.17
2017-08-30T00:42:58.144Z,100674.81
2017-08-30T00:45:26.056Z,100671.85
2017-08-30T00:47:53.992Z,100667.61
2017-08-30T00:50:21.918Z,100671.20
2017-08-30T00:52:50.233Z,100670.05
2017-08-30T00:55:18.241Z,100673.19
2017-08-30T00:57:46.419Z,100676.81
2017-08-30T01:00:14.407Z,100671.98
2017-08-30T01:02:42.341Z,100668.05
2017-08-30T01:05:10.263Z,100664.22
2017-08-30T01:07:38.191Z,100665.47
2017-08-30T01:10:06.090Z,100669.94
2017-08-30T01:12:34.010Z,100660.39
2017-08-30T01:15:01.949Z,100661.29
2017-08-30T01:17:29.858Z,100656.58
2017-08-30T01:19:57.785Z,100660.42
2017-08-30T01:22:25.707Z,100652.89
2017-08-30T01:24:53.622Z,100658.73
2017-08-30T01:27:21.538Z,100655.75
2017-08-30T01:29:49.464Z,100652.94
2017-08-30T01:32:17.465Z,100657.37
2017-08-30T01:34:45.381Z,100654.06
2017-08-30T01:37:13.296Z,100651.34
2017-08-30T01:39:41.226Z,100646.13
2017-08-30T01:42:09.139Z,100650.23
2017-08-30T01:44:37.046Z,100645.10
2017-08-30T01:47:04.974Z,100645.16
2017-08-30T01:49:32.891Z,100643.27
2017-08-30T01:52:00.823Z,100644.61
2017-08-30T01:54:28.742Z,100641.27
2017-08-30T01:56:56.666Z,100642.63
2017-08-30T01:59:24.572Z,100641.78
2017-08-30T02:01:52.490Z,100638.68
2017-08-30T02:04:20.407Z,100639.30
2017-08-30T02:06:48.356Z,100631.45
2017-08-30T02:09:16.255Z,100634.10
2017-08-30T02:11:44.382Z,100632.81
2017-08-30T02:14:12.313Z,100639.06
2017-08-30T02:16:40.230Z,100639.00
2017-08-30T02:19:08.173Z,100635.98
2017-08-30T02:21:36.075Z,100631.61
2017-08-30T02:24:04.003Z,100629.87
2017-08-30T02:26:31.919Z,100622.45
2017-08-30T02:28:59.828Z,100627.33
2017-08-30T02:31:27.738Z,100623.28
2017-08-30T02:33:55.654Z,100624.20
2017-08-30T02:36:23.569Z,100626.88
2017-08-30T02:38:51.496Z,100625.12
2017-08-30T02:41:19.424Z,100615.12
2017-08-30T02:43:47.475Z,100620.33
2017-08-30T02:46:15.405Z,100621.73
2017-08-30T02:48:43.337Z,100620.31
2017-08-30T02:51:11.258Z,100613.05
2017-08-30T02:53:39.204Z,100614.86
2017-08-30T02:56:07.111Z,100612.19
2017-08-30T02:58:35.033Z,100607.88
2017-08-30T03:01:03.011Z,100599.14
2017-08-30T03:03:30.931Z,100594.69
2017-08-30T03:05:58.849Z,100600.02
2017-08-30T03:08:26.754Z,100598.22
2017-08-30T03:10:54.676Z,100604.74
2017-08-30T03:13:22.600Z,100608.88
2017-08-30T03:15:50.508Z,100609.80
2017-08-30T03:18:18.436Z,100607.70
2017-08-30T03:20:46.523Z,100607.33
2017-08-30T03:23:14.443Z,100618.36
2017-08-30T03:25:42.351Z,100625.77
2017-08-30T03:28:10.267Z,100620.59
2017-08-30T03:30:38.171Z,100621.81
2017-08-30T03:33:06.093Z,100617.94
2017-08-30T03:35:34.030Z,100622.24
2017-08-30T03:38:01.960Z,100616.58
2017-08-30T03:40:29.872Z,100616.66
2017-08-30T03:42:57.789Z,100617.19
2017-08-30T03:45:25.695Z,100625.55
2017-08-30T03:47:53.610Z,100626.69
2017-08-30T03:50:21.778Z,100618.42
2017-08-30T03:52:50.017Z,100623.94
2017-08-30T03:55:17.935Z,100616.90
2017-08-30T03:57:45.846Z,100615.31
2017-08-30T04:00:13.774Z,100610.14
2017-08-30T04:02:41.684Z,100605.63
2017-08-30T04:05:09.598Z,100609.91
2017-08-30T04:07:37.499Z,100615.60
2017-08-30T04:10:05.453Z,100618.81
2017-08-30T04:12:33.376Z,100617.98
2017-08-30T04:15:01.311Z,100620.64
2017-08-30T04:17:29.220Z,100615.31
2017-08-30T04:19:57.154Z,100618.88
2017-08-30T04:22:25.078Z,100616.19
2017-08-30T04:24:52.997Z,100623.70
2017-08-30T04:27:20.913Z,100624.55
2017-08-30T04:29:48.825Z,100627.91
2017-08-30T04:32:16.740Z,100622.32
2017-08-30T04:34:44.650Z,100619.27
2017-08-30T04:37:12.558Z,100619.30
2017-08-30T04:39:40.665Z,100618.36
2017-08-30T04:42:08.594Z,100616.58
2017-08-30T04:44:36.527Z,100622.62
2017-08-30T04:47:04.430Z,100621.32
2017-08-30T04:49:32.349Z,100624.41
2017-08-30T04:52:00.623Z,100623.87
2017-08-30T04:54:28.547Z,100621.52
2017-08-30T04:56:56.627Z,100617.34
2017-08-30T04:59:24.546Z,100620.61
2017-08-30T05:01:52.451Z,100617.05
2017-08-30T05:04:20.368Z,100616.58
2017-08-30T05:06:48.268Z,100613.31
2017-08-30T05:09:16.200Z,100610.54
2017-08-30T05:11:44.110Z,100605.70
2017-08-30T05:14:12.040Z,100608.52
2017-08-30T05:16:39.954Z,100611.20
2017-08-30T05:19:07.875Z,100619.01
2017-08-30T05:21:35.777Z,100617.84
2017-08-30T05:24:03.711Z,100612.31
2017-08-30T05:26:31.634Z,100611.71
2017-08-30T05:28:59.546Z,100612.77
2017-08-30T05:31:27.446Z,100613.84
2017-08-30T05:33:55.662Z,100615.11
2017-08-30T05:36:23.575Z,100615.37
2017-08-30T05:38:51.498Z,100614.94
2017-08-30T05:41:19.433Z,100613.08
2017-08-30T05:43:47.356Z,100608.10
2017-08-30T05:46:15.288Z,100616.34
2017-08-30T05:48:43.208Z,100615.69
2017-08-30T05:51:11.138Z,100612.94
2017-08-30T05:53:39.056Z,100616.34
2017-08-30T05:56:06.970Z,100611.80
2017-08-30T05:58:34.875Z,100613.94
2017-08-30T06:01:02.798Z,100609.58
2017-08-30T06:03:30.706Z,100611.08
2017-08-30T06:05:58.875Z,100609.44
2017-08-30T06:08:26.795Z,100609.67
2017-08-30T06:10:54.705Z,100608.77
2017-08-30T06:13:22.628Z,100609.05
2017-08-30T06:15:50.534Z,100608.39
2017-08-30T06:18:18.455Z,100601.59
2017-08-30T06:20:46.377Z,100608.20
2017-08-30T06:23:14.300Z,100597.06
2017-08-30T06:25:42.202Z,100596.48
2017-08-30T06:28:10.143Z,100595.14
2017-08-30T06:30:38.056Z,100592.74
2017-08-30T06:33:05.991Z,100600.97
2017-08-30T06:35:33.890Z,100592.54
2017-08-30T06:38:01.919Z,100588.51
2017-08-30T06:40:29.833Z,100591.73
2017-08-30T06:42:57.765Z,100589.14
2017-08-30T06:45:25.667Z,100591.64
2017-08-30T06:47:53.745Z,100588.39
2017-08-30T06:50:21.654Z,100592.16
2017-08-30T06:52:49.560Z,100585.03
2017-08-30T06:55:17.550Z,100581.95
2017-08-30T06:57:45.472Z,100578.41
2017-08-30T07:00:13.392Z,100579.98
2017-08-30T07:02:41.304Z,100588.16
2017-08-30T07:05:09.226Z,100585.27
2017-08-30T07:07:37.150Z,100585.34
2017-08-30T07:10:05.068Z,100582.02
2017-08-30T07:12:33.006Z,100578.48
2017-08-30T07:15:00.929Z,100583.52
2017-08-30T07:17:28.835Z,100580.22
2017-08-30T07:19:56.756Z,100581.83
2017-08-30T07:22:24.674Z,100584.75
2017-08-30T07:24:52.592Z,100578.84
2017-08-30T07:27:20.519Z,100585.91
2017-08-30T07:29:48.432Z,100582.16
2017-08-30T07:32:16.358Z,100577.00
2017-08-30T07:34:44.286Z,100577.36
2017-08-30T07:37:12.206Z,100581.58
2017-08-30T07:39:40.116Z,100576.93
2017-08-30T07:42:08.047Z,100567.84
2017-08-30T07:44:35.951Z,100567.30
2017-08-30T07:47:03.986Z,100568.94
2017-08-30T07:49:31.912Z,100565.86
2017-08-30T07:51:59.828Z,100573.30
2017-08-30T07:54:27.758Z,100565.48
2017-08-30T07:56:55.680Z,100575.76
2017-08-30T07:59:23.599Z,100565.86
2017-08-30T08:01:51.511Z,100565.03
2017-08-30T08:04:19.432Z,100565.55
2017-08-30T08:06:47.339Z,100564.25
2017-08-30T08:09:15.262Z,100561.63
2017-08-30T08:11:43.185Z,100556.89
2017-08-30T08:14:11.107Z,100559.24
2017-08-30T08:16:39.018Z,100544.91
2017-08-30T08:19:06.953Z,100550.94
2017-08-30T08:21:34.874Z,100554.89
2017-08-30T08:24:02.795Z,100553.97
2017-08-30T08:26:30.709Z,100556.20
2017-08-30T08:28:58.636Z,100549.56
2017-08-30T08:31:26.550Z,100550.67
2017-08-30T08:33:54.477Z,100555.72
2017-08-30T08:36:22.426Z,100558.97
2017-08-30T08:38:50.368Z,100564.07
2017-08-30T08:41:18.297Z,100564.98
2017-08-30T08:43:46.293Z,100561.30
2017-08-30T08:46:14.229Z,100564.42
2017-08-30T08:48:42.122Z,100555.70
2017-08-30T08:51:10.074Z,100559.05
2017-08-30T08:53:37.995Z,100563.55
2017-08-30T08:56:05.915Z,100561.53
2017-08-30T08:58:33.844Z,100569.37
2017-08-30T09:01:01.752Z,100566.37
2017-08-30T09:03:30.046Z,100561.85
2017-08-30T09:05:57.942Z,100571.27
2017-08-30T09:08:25.859Z,100565.20
2017-08-30T09:10:54.154Z,100561.84
2017-08-30T09:13:22.084Z,100554.77
2017-08-30T09:15:50.294Z,100555.97
2017-08-30T09:18:18.536Z,100557.52
2017-08-30T09:20:46.449Z,100549.76
2017-08-30T09:23:14.360Z,100557.41
2017-08-30T09:25:42.485Z,100551.48
2017-08-30T09:28:10.431Z,100548.75
2017-08-30T09:30:38.377Z,100541.91
2017-08-30T09:33:06.627Z,100541.52
2017-08-30T09:35:34.553Z,100543.86
2017-08-30T09:38:02.467Z,100537.55
2017-08-30T09:40:30.426Z,100540.90
2017-08-30T09:42:58.348Z,100541.38
2017-08-30T09:45:26.264Z,100529.21
2017-08-30T09:47:54.189Z,100526.53
2017-08-30T09:50:22.130Z,100523.72
2017-08-30T09:52:50.041Z,100521.94
2017-08-30T09:55:17.967Z,100524.08
2017-08-30T09:57:45.888Z,100523.89
2017-08-30T10:00:13.793Z,100521.09
2017-08-30T10:02:42.180Z,100520.72
2017-08-30T10:05:10.081Z,100521.61
2017-08-30T10:07:38.007Z,100517.17
2017-08-30T10:10:05.946Z,100508.58
2017-08-30T10:12:33.864Z,100512.00
2017-08-30T10:15:01.796Z,100510.47
2017-08-30T10:17:29.732Z,100506.64
2017-08-30T10:19:57.643Z,100493.84
2017-08-30T10:22:25.564Z,100494.83
2017-08-30T10:24:53.503Z,100494.05
2017-08-30T10:27:21.416Z,100499.48
2017-08-30T10:29:49.361Z,100497.28
2017-08-30T10:32:17.287Z,100493.89
2017-08-30T10:34:45.376Z,100496.07
2017-08-30T10:37:13.299Z,100483.38
2017-08-30T10:39:41.208Z,100483.53
2017-08-30T10:42:09.131Z,100487.97
2017-08-30T10:44:37.032Z,100481.55
2017-08-30T10:47:04.959Z,100480.66
2017-08-30T10:49:33.053Z,100483.19
2017-08-30T10:52:01.013Z,100477.23
2017-08-30T10:54:28.941Z,100475.96
2017-08-30T10:56:56.869Z,100470.67
2017-08-30T10:59:24.776Z,100469.25
2017-08-30T11:01:52.702Z,100459.38
2017-08-30T11:04:21.094Z,100463.75
2017-08-30T11:06:49.476Z,100460.35
2017-08-30T11:09:17.861Z,100463.63
2017-08-30T11:11:45.796Z,100468.78
2017-08-30T11:14:14.159Z,100469.98
2017-08-30T11:16:42.076Z,100474.64
2017-08-30T11:19:10.000Z,100463.09
2017-08-30T11:21:37.949Z,100457.70
2017-08-30T11:24:06.102Z,100461.68
2017-08-30T11:26:34.026Z,100459.97
2017-08-30T11:29:01.947Z,100448.98
2017-08-30T11:31:29.839Z,100454.80
2017-08-30T11:33:57.794Z,100450.41
2017-08-30T11:36:25.961Z,100441.41
2017-08-30T11:38:53.900Z,100445.20
2017-08-30T11:41:21.854Z,100435.73
2017-08-30T11:43:49.803Z,100431.25
2017-08-30T11:46:17.720Z,100430.02
2017-08-30T11:48:45.655Z,100431.92
2017-08-30T11:51:13.575Z,100432.97
2017-08-30T11:53:41.773Z,100433.99
2017-08-30T11:56:09.687Z,100435.58
2017-08-30T11:58:37.612Z,100426.98
2017-08-30T12:01:05.522Z,100436.30
2017-08-30T12:03:33.545Z,100448.30
2017-08-30T12:06:01.472Z,100440.20
2017-08-30T12:08:29.396Z,100440.37
2017-08-30T12:10:58.024Z,100431.30
2017-08-30T12:13:25.925Z,100429.52
2017-08-30T12:15:53.834Z,100414.03
2017-08-30T12:18:21.752Z,100413.04
2017-08-30T12:20:49.676Z,100412.50
2017-08-30T12:23:17.595Z,100418.16
2017-08-30T12:25:45.527Z,100416.27
2017-08-30T12:28:13.444Z,100414.00
2017-08-30T12:30:41.367Z,100412.33
2017-08-30T12:33:09.269Z,100402.45
2017-08-30T12:35:37.195Z,100399.56
2017-08-30T12:38:10.571Z,100390.58
2017-08-30T12:40:38.680Z,100387.42
2017-08-30T12:43:06.598Z,100388.23
2017-08-30T12:45:34.514Z,100378.02
2017-08-30T12:48:02.439Z,100380.66
2017-08-30T12:50:30.343Z,100372.97
2017-08-30T12:52:58.287Z,100363.16
2017-08-30T12:55:26.210Z,100354.09
2017-08-30T12:57:54.123Z,100346.99
2017-08-30T13:00:22.023Z,100338.78
2017-08-30T13:02:49.949Z,100329.94
2017-08-30T13:05:17.854Z,100335.03
2017-08-30T13:07:46.027Z,100327.47
2017-08-30T13:10:13.951Z,100332.58
2017-08-30T13:12:41.860Z,100325.50
2017-08-30T13:15:09.908Z,100315.17
2017-08-30T13:17:37.813Z,100323.55
2017-08-30T13:20:06.016Z,100338.39
2017-08-30T13:22:33.936Z,100347.34
2017-08-30T13:25:01.860Z,100355.70
2017-08-30T13:27:29.774Z,100347.84
2017-08-30T13:29:57.678Z,100352.37
2017-08-30T13:32:25.586Z,100347.95
2017-08-30T13:34:53.525Z,100346.17
2017-08-30T13:37:21.422Z,100346.19
2017-08-30T13:39:49.386Z,100344.95
2017-08-30T13:42:17.352Z,100338.23
2017-08-30T13:44:45.257Z,100326.52
2017-08-30T13:47:13.211Z,100325.59
2017-08-30T13:49:41.112Z,100324.91
2017-08-30T13:52:09.030Z,100313.00
2017-08-30T13:54:36.938Z,100309.04
2017-08-30T13:57:05.156Z,100316.72
2017-08-30T13:59:33.062Z,100320.12
2017-08-30T14:02:00.971Z,100313.84
2017-08-30T14:04:28.904Z,100316.55
2017-08-30T14:06:56.802Z,100319.56
2017-08-30T14:09:24.728Z,100323.80
2017-08-30T14:11:52.654Z,100318.22
2017-08-30T14:14:20.597Z,100322.59
2017-08-30T14:16:48.502Z,100319.34
2017-08-30T14:19:16.522Z,100305.86
2017-08-30T14:21:44.444Z,100306.36
2017-08-30T14:24:12.372Z,100296.58
2017-08-30T14:26:40.304Z,100297.45
2017-08-30T14:29:08.218Z,100294.63
2017-08-30T14:31:36.237Z,100290.89
2017-08-30T14:34:04.156Z,100288.11
2017-08-30T14:36:32.102Z,100280.90
2017-08-30T14:39:00.044Z,100283.47
2017-08-30T14:41:27.959Z,100285.81
2017-08-30T14:43:55.862Z,100269.38
2017-08-30T14:46:23.791Z,100268.05
2017-08-30T14:48:51.712Z,100260.67
2017-08-30T14:51:19.899Z,100265.77
2017-08-30T14:53:47.808Z,100258.70
2017-08-30T14:56:15.711Z,100261.66
2017-08-30T14:58:43.648Z,100255.33
2017-08-30T15:01:11.568Z,100259.43
2017-08-30T15:03:39.479Z,100256.66
2017-08-30T15:06:07.405Z,100250.03
2017-08-30T15:08:35.742Z,100244.66
2017-08-30T15:11:03.659Z,100251.38
2017-08-30T15:13:31.561Z,100249.83
2017-08-30T15:15:59.488Z,100250.34
2017-08-30T15:18:27.405Z,100246.56
2017-08-30T15:20:55.348Z,100235.99
2017-08-30T15:23:23.259Z,100234.04
2017-08-30T15:25:51.180Z,100229.56
2017-08-30T15:28:19.110Z,100223.61
2017-08-30T15:30:47.104Z,100227.63
2017-08-30T15:33:15.006Z,100231.45
2017-08-30T15:35:43.092Z,100230.70
2017-08-30T15:38:10.987Z,100229.02
2017-08-30T15:40:38.891Z,100231.74
2017-08-30T15:43:06.819Z,100227.09
2017-08-30T15:45:34.735Z,100228.45
2017-08-30T15:48:02.982Z,100222.86
2017-08-30T15:50:30.875Z,100229.03
2017-08-30T15:52:58.783Z,100217.05
2017-08-30T15:55:26.711Z,100210.44
2017-08-30T15:57:54.641Z,100208.83
2017-08-30T16:00:22.548Z,100200.16
2017-08-30T16:02:50.647Z,100191.99
2017-08-30T16:05:18.583Z,100183.00
2017-08-30T16:07:47.379Z,100179.18
2017-08-30T16:10:15.316Z,100170.23
2017-08-30T16:12:43.224Z,100170.98
2017-08-30T16:15:11.145Z,100167.27
2017-08-30T16:17:39.089Z,100173.42
2017-08-30T16:20:07.024Z,100154.66
2017-08-30T16:22:34.945Z,100158.80
2017-08-30T16:25:02.871Z,100163.06
2017-08-30T16:27:30.776Z,100166.28
2017-08-30T16:29:58.718Z,100155.66
2017-08-30T16:32:26.622Z,100148.23
2017-08-30T16:34:54.674Z,100150.42
2017-08-30T16:37:22.655Z,100151.88
2017-08-30T16:39:50.576Z,100153.59
2017-08-30T16:42:18.592Z,100136.88
2017-08-30T16:44:46.524Z,100144.48
2017-08-30T16:47:14.457Z,100140.03
2017-08-30T16:49:42.364Z,100139.93
2017-08-30T16:52:10.283Z,100146.14
2017-08-30T16:54:38.196Z,100142.70
2017-08-30T16:57:06.112Z,100152.71
2017-08-30T16:59:34.068Z,100150.84
2017-08-30T17:02:01.986Z,100149.12
2017-08-30T17:04:29.892Z,100159.77
2017-08-30T17:06:57.937Z,100167.25
2017-08-30T17:09:25.854Z,100167.55
2017-08-30T17:11:53.766Z,100159.23
2017-08-30T17:14:27.593Z,100156.74
2017-08-30T17:16:55.517Z,100147.09
2017-08-30T17:19:23.426Z,100146.42
2017-08-30T17:21:51.369Z,100148.64
2017-08-30T17:24:19.288Z,100140.89
2017-08-30T17:26:47.373Z,100144.33
2017-08-30T17:29:15.292Z,100151.84
2017-08-30T17:31:43.219Z,100149.69
2017-08-30T17:34:11.140Z,100151.55
2017-08-30T17:36:39.056Z,100155.34
2017-08-30T17:39:07.004Z,100151.36
2017-08-30T17:41:34.913Z,100158.25
2017-08-30T17:44:02.860Z,100146.00
2017-08-30T17:46:30.800Z,100147.80
2017-08-30T17:48:58.731Z,100148.66
2017-08-30T17:51:26.656Z,100157.60
2017-08-30T17:53:54.694Z,100149.87
2017-08-30T17:56:22.611Z,100143.62
2017-08-30T17:58:50.523Z,100145.05
2017-08-30T18:01:18.456Z,100154.78
2017-08-30T18:03:46.651Z,100150.50
2017-08-30T18:06:14.584Z,100157.09
2017-08-30T18:08:42.496Z,100154.69
2017-08-30T18:11:10.419Z,100154.87
2017-08-30T18:13:38.364Z,100159.83
2017-08-30T18:16:06.292Z,100148.63
2017-08-30T18:18:34.198Z,100159.99
2017-08-30T18:21:02.116Z,100157.59
2017-08-30T18:23:30.043Z,100156.34
2017-08-30T18:25:58.220Z,100153.75
2017-08-30T18:28:26.192Z,100151.44
2017-08-30T18:30:54.208Z,100167.48
2017-08-30T18:33:22.120Z,100162.78
2017-08-30T18:35:50.033Z,100160.31
2017-08-30T18:38:17.956Z,100164.07
2017-08-30T18:40:45.873Z,100157.69
2017-08-30T18:43:13.794Z,100155.31
2017-08-30T18:45:41.705Z,100158.34
2017-08-30T18:48:09.645Z,100151.91
2017-08-30T18:50:37.873Z,100152.86
2017-08-30T18:53:05.817Z,100153.94
2017-08-30T18:55:33.727Z,100145.14
2017-08-30T18:58:01.662Z,100140.48
2017-08-30T19:00:29.600Z,100136.47
2017-08-30T19:02:57.792Z,100137.11
2017-08-30T19:05:25.718Z,100135.30
2017-08-30T19:07:53.623Z,100135.52
2017-08-30T19:10:21.559Z,100136.11
2017-08-30T19:12:49.459Z,100127.79
2017-08-30T19:15:17.393Z,100134.77
2017-08-30T19:17:45.404Z,100126.48
2017-08-30T19:20:13.328Z,100129.41
2017-08-30T19:22:41.244Z,100127.17
2017-08-30T19:25:09.311Z,100128.63
2017-08-30T19:27:37.309Z,100129.78
2017-08-30T19:30:05.214Z,100126.94
2017-08-30T19:32:33.137Z,100132.41
2017-08-30T19:35:01.031Z,100127.73
2017-08-30T19:37:29.053Z,100131.42
2017-08-30T19:39:56.953Z,100135.00
2017-08-30T19:42:24.858Z,100125.55
2017-08-30T19:44:52.761Z,100121.78
2017-08-30T19:47:20.665Z,100119.28
2017-08-30T19:49:48.571Z,100114.45
2017-08-30T19:52:16.602Z,100123.28
2017-08-30T19:54:44.511Z,100117.28
2017-08-30T19:57:12.461Z,100111.05
2017-08-30T19:59:40.403Z,100104.97
2017-08-30T20:02:08.342Z,100100.70
2017-08-30T20:04:36.371Z,100109.73
2017-08-30T20:07:04.295Z,100115.70
2017-08-30T20:09:32.208Z,100115.39
2017-08-30T20:12:00.120Z,100114.77
2017-08-30T20:14:28.052Z,100110.30
2017-08-30T20:16:55.973Z,100101.42
2017-08-30T20:19:23.892Z,100104.05
2017-08-30T20:21:51.809Z,100110.64
2017-08-30T20:24:19.833Z,100107.95
2017-08-30T20:26:47.747Z,100102.56
2017-08-30T20:29:15.653Z,100096.61
2017-08-30T20:31:43.574Z,100095.58
2017-08-30T20:34:11.479Z,100101.52
2017-08-30T20:36:39.400Z,100097.13
2017-08-30T20:39:07.315Z,100086.29
2017-08-30T20:41:35.249Z,100092.88
2017-08-30T20:44:03.164Z,100096.45
2017-08-30T20:46:31.144Z,100100.56
2017-08-30T20:48:59.077Z,100105.77
2017-08-30T20:51:27.009Z,100097.38
2017-08-30T20:53:54.969Z,100105.03
2017-08-30T20:56:22.892Z,100097.38
2017-08-30T20:58:50.807Z,100101.13
2017-08-30T21:01:18.914Z,100094.19
2017-08-30T21:03:46.814Z,100094.09
2017-08-30T21:06:14.728Z,100096.58
2017-08-30T21:08:42.661Z,100099.83
2017-08-30T21:11:10.571Z,100097.64
2017-08-30T21:13:38.514Z,100097.59
2017-08-30T21:16:06.446Z,100089.02
2017-08-30T21:18:34.372Z,100087.87
2017-08-30T21:21:02.312Z,100082.14
2017-08-30T21:23:30.236Z,100080.79
2017-08-30T21:25:58.127Z,100074.78
2017-08-30T21:28:26.056Z,100078.21
2017-08-30T21:30:54.481Z,100073.35
2017-08-30T21:33:22.490Z,100079.12
2017-08-30T21:35:50.401Z,100070.92
2017-08-30T21:38:18.461Z,100067.53
2017-08-30T21:40:46.369Z,100068.22
2017-08-30T21:43:14.276Z,100076.36
2017-08-30T21:45:42.207Z,100072.40
2017-08-30T21:48:10.109Z,100076.47
2017-08-30T21:50:38.159Z,100072.62
2017-08-30T21:53:06.067Z,100074.95
2017-08-30T21:55:33.988Z,100068.23
2017-08-30T21:58:02.150Z,100071.32
2017-08-30T22:00:30.078Z,100070.61
2017-08-30T22:02:57.982Z,100066.14
2017-08-30T22:05:25.899Z,100060.20
2017-08-30T22:07:53.820Z,100056.89
2017-08-30T22:10:21.738Z,100061.53
2017-08-30T22:12:49.669Z,100066.28
2017-08-30T22:15:17.597Z,100068.77
2017-08-30T22:17:45.516Z,100069.73
2017-08-30T22:20:13.422Z,100065.78
2017-08-30T22:22:41.332Z,100063.95
2017-08-30T22:25:09.240Z,100062.69
2017-08-30T22:27:37.155Z,100065.05
2017-08-30T22:30:05.064Z,100064.66
2017-08-30T22:32:33.166Z,100060.56
2017-08-30T22:35:01.091Z,100055.34
2017-08-30T22:37:29.002Z,100060.99
2017-08-30T22:39:56.910Z,100061.00
2017-08-30T22:42:24.833Z,100057.22
2017-08-30T22:44:52.742Z,100052.39
2017-08-30T22:47:20.642Z,100051.89
2017-08-30T22:49:48.546Z,100057.86
2017-08-30T22:52:16.441Z,100059.09
2017-08-30T22:54:44.364Z,100051.28
2017-08-30T22:57:12.268Z,100044.37
2017-08-30T22:59:40.185Z,100039.51
2017-08-30T23:02:08.100Z,100035.66
2017-08-30T23:04:36.007Z,100034.63
2017-08-30T23:07:03.926Z,100031.20
2017-08-30T23:09:32.209Z,100028.65
2017-08-30T23:12:00.432Z,100026.88
2017-08-30T23:14:28.361Z,100023.07
2017-08-30T23:16:56.266Z,100024.22
2017-08-30T23:19:24.180Z,100019.94
2017-08-30T23:21:52.091Z,100028.28
2017-08-30T23:24:19.983Z,100026.48
2017-08-30T23:26:47.906Z,100033.03
2017-08-30T23:29:15.812Z,100026.13
2017-08-30T23:31:43.722Z,100026.20
2017-08-30T23:34:11.614Z,100021.34
2017-08-30T23:36:39.533Z,100028.65
2017-08-30T23:39:07.439Z,100032.42
2017-08-30T23:41:35.511Z,100029.16
2017-08-30T23:44:03.455Z,100019.94
2017-08-30T23:46:31.368Z,100025.98
2017-08-30T23:48:59.278Z,100023.14
2017-08-30T23:51:27.301Z,100031.48
2017-08-30T23:53:55.220Z,100033.40
2017-08-30T23:56:23.381Z,100031.17
2017-08-30T23:58:51.290Z,100037.21
